createdAt,value
2023-10-06T00:03:43.058Z,17.1
2023-10-06T00:16:43.043Z,17.1
2023-10-06T00:29:43.015Z,17.0
2023-10-06T00:42:43.001Z,16.9
2023-10-06T00:55:43.026Z,16.8
2023-10-06T01:08:42.991Z,16.4
2023-10-06T01:21:43.043Z,15.9
2023-10-06T01:34:43.088Z,16.1
2023-10-06T01:47:43.080Z,16.6
2023-10-06T02:00:43.063Z,15.7
2023-10-06T02:13:43.100Z,14.9
2023-10-06T02:26:43.111Z,14.6
2023-10-06T02:39:43.135Z,14.3
2023-10-06T02:52:43.169Z,14.2
2023-10-06T03:05:43.188Z,13.8
2023-10-06T03:18:43.177Z,13.7
2023-10-06T03:31:43.207Z,13.6
2023-10-06T03:44:43.263Z,13.3
2023-10-06T03:57:43.228Z,13.2
2023-10-06T04:10:43.256Z,13.0
2023-10-06T04:23:43.293Z,12.9
2023-10-06T04:36:43.435Z,13.0
2023-10-06T04:49:43.436Z,13.0
2023-10-06T05:02:43.471Z,12.9
2023-10-06T05:16:43.514Z,12.8
2023-10-06T05:30:43.460Z,12.9
2023-10-06T05:44:43.446Z,12.9
2023-10-06T05:58:43.463Z,13.1
2023-10-06T06:11:43.504Z,13.5
2023-10-06T06:24:43.624Z,13.7
2023-10-06T06:37:43.713Z,14.2
2023-10-06T06:50:44.098Z,14.9
2023-10-06T07:03:43.782Z,16.0
2023-10-06T07:16:43.701Z,19.2
2023-10-06T07:29:43.742Z,21.3
2023-10-06T07:42:43.755Z,22.5
2023-10-06T07:55:43.764Z,21.8
2023-10-06T08:08:43.765Z,22.3
2023-10-06T08:21:43.781Z,23.0
2023-10-06T08:34:43.819Z,22.6
2023-10-06T08:47:53.877Z,22.7
2023-10-06T09:00:43.830Z,23.1
2023-10-06T09:13:43.905Z,24.6
2023-10-06T09:26:43.894Z,24.8
2023-10-06T09:39:44.464Z,24.6
2023-10-06T09:52:43.962Z,24.9
2023-10-06T10:06:43.935Z,24.7
2023-10-06T10:20:43.940Z,24.9
2023-10-06T10:34:43.933Z,24.8
2023-10-06T10:48:43.979Z,23.9
2023-10-06T11:02:44.014Z,24.1
2023-10-06T11:16:44.067Z,24.7
2023-10-06T11:30:44.167Z,25.2
2023-10-06T11:44:44.034Z,25.4
2023-10-06T11:58:44.050Z,26.6
2023-10-06T12:12:44.089Z,27.2
2023-10-06T12:26:44.142Z,27.4
2023-10-06T12:40:44.151Z,27.5
2023-10-06T12:53:44.150Z,27.9
2023-10-06T13:06:44.218Z,28.7
2023-10-06T13:19:44.158Z,28.6
2023-10-06T13:33:44.312Z,27.5
2023-10-06T13:47:44.308Z,28.3
2023-10-06T14:01:44.264Z,28.1
2023-10-06T14:15:44.267Z,28.3
2023-10-06T14:29:44.293Z,27.9
2023-10-06T14:43:44.336Z,27.0
2023-10-06T14:57:44.308Z,28.8
2023-10-06T15:11:44.337Z,27.5
2023-10-06T15:25:44.366Z,27.4
2023-10-06T15:39:44.431Z,25.3
2023-10-06T15:54:44.429Z,23.3
2023-10-06T16:08:44.497Z,22.3
2023-10-06T16:22:44.524Z,20.5
2023-10-06T16:36:44.571Z,19.5
2023-10-06T16:51:44.654Z,19.0
2023-10-06T17:05:44.725Z,18.2
2023-10-06T17:20:44.804Z,17.6
2023-10-06T17:33:44.758Z,17.2
2023-10-06T17:47:44.885Z,17.4
2023-10-06T18:00:44.846Z,16.8
2023-10-06T18:13:44.808Z,17.0
2023-10-06T18:26:44.819Z,16.4
2023-10-06T18:39:44.849Z,15.5
2023-10-06T18:52:44.866Z,15.3
2023-10-06T19:05:44.929Z,15.2
2023-10-06T19:18:44.949Z,15.2
2023-10-06T19:31:45.004Z,14.8
2023-10-06T19:44:44.998Z,14.5
2023-10-06T19:57:44.981Z,14.3
2023-10-06T20:10:45.142Z,14.0
2023-10-06T20:23:45.089Z,13.7
2023-10-06T20:36:45.252Z,13.9
2023-10-06T20:49:45.299Z,13.9
2023-10-06T21:02:45.351Z,13.5
2023-10-06T21:15:45.385Z,13.5
2023-10-06T21:28:45.429Z,13.6
2023-10-06T21:41:45.427Z,13.2
2023-10-06T21:54:45.454Z,13.3
2023-10-06T22:07:45.484Z,13.1
2023-10-06T22:20:45.481Z,13.0
2023-10-06T22:33:45.417Z,13.1
2023-10-06T22:46:45.526Z,12.6
2023-10-06T22:59:45.481Z,12.3
2023-10-06T23:12:45.493Z,12.2
2023-10-06T23:25:45.546Z,12.2
2023-10-06T23:38:45.547Z,12.2
2023-10-06T23:51:45.613Z,12.1
